Time;durP1;ratioP1;P1;durP2;ratioP2;P2;SDS_P1;SDS_P2;PMS_P1;PMS_P2;Temp;Humidity;BMP_temperature;BMP_pressure;BME280_temperature;BME280_humidity;BME280_pressure;Samples;Min_cycle;Max_cycle;Signal;HPM_P1;HPM_P2
2022/08/16 00:02:09;;;;;;;8.20;6.90;;;;;;;18.55;77.27;97849.66;109670;1276;1016674;-75
2022/08/16 00:08:03;;;;;;;9.60;7.60;;;;;;;18.50;77.66;97858.63;109762;1276;1016703;-75
2022/08/16 00:14:05;;;;;;;11.00;8.10;;;;;;;18.42;78.14;97864.41;109841;1277;1017282;-75
2022/08/16 00:19:48;;;;;;;10.80;7.60;;;;;;;18.39;78.37;97870.08;109668;1276;1016445;-75
2022/08/16 00:24:58;;;;;;;8.70;7.50;;;;;;;18.30;78.73;97873.97;109746;1278;1017261;-75
2022/08/16 00:30:42;;;;;;;10.00;6.90;;;;;;;18.24;79.00;97876.42;109601;1276;1016642;-75
2022/08/16 00:36:09;;;;;;;11.60;7.50;;;;;;;18.20;79.54;97875.81;109748;1277;1016706;-75
2022/08/16 00:41:50;;;;;;;9.60;7.40;;;;;;;18.18;79.79;97872.59;109735;1276;1017170;-75
2022/08/16 00:48:05;;;;;;;10.00;7.20;;;;;;;18.15;80.27;97872.38;109669;1276;1019155;-74
2022/08/16 00:53:39;;;;;;;11.20;7.90;;;;;;;18.14;80.59;97871.13;109661;1277;1016491;-76
2022/08/16 00:58:51;;;;;;;10.70;8.10;;;;;;;18.14;80.65;97870.90;109834;1276;1016814;-74
2022/08/16 01:04:40;;;;;;;12.80;9.00;;;;;;;18.13;80.76;97862.73;109590;1277;1016698;-74
2022/08/16 01:10:36;;;;;;;14.50;8.90;;;;;;;18.12;80.88;97858.25;109654;1277;1016973;-75
2022/08/16 01:23:06;;;;;;;11.10;7.50;;;;;;;18.11;81.37;97865.13;109778;1276;1016713;-74
2022/08/16 01:29:22;;;;;;;10.40;7.60;;;;;;;18.06;81.72;97873.08;109603;1276;1016542;-75
2022/08/16 01:34:54;;;;;;;11.00;8.30;;;;;;;18.02;81.85;97872.54;109649;1277;1016493;-74
2022/08/16 01:40:28;;;;;;;12.10;8.50;;;;;;;18.00;81.88;97872.20;109735;1277;1016524;-75
2022/08/16 01:46:45;;;;;;;12.50;8.60;;;;;;;17.96;81.96;97873.07;107849;1277;5397033;-75
2022/08/16 01:53:04;;;;;;;13.00;8.80;;;;;;;17.93;82.06;97872.23;109675;1277;1017884;-75
2022/08/16 01:59:30;;;;;;;10.50;7.90;;;;;;;17.86;82.04;97868.27;109616;1277;1019086;-75
2022/08/16 02:05:08;;;;;;;10.30;8.10;;;;;;;17.77;82.10;97867.26;109609;1276;1016627;-74
2022/08/16 02:11:48;;;;;;;11.80;8.30;;;;;;;17.70;82.10;97864.19;109674;1276;1016770;-74
2022/08/16 02:17:20;;;;;;;10.50;8.00;;;;;;;17.64;82.30;97857.58;109845;1277;1016350;-75
2022/08/16 02:23:47;;;;;;;;;;;;;;;;;;;;;
2022/08/16 02:29:46;;;;;;;13.00;8.70;;;;;;;17.52;82.68;97861.14;109779;1277;1016256;-75
2022/08/16 02:34:59;;;;;;;10.70;8.30;;;;;;;17.48;82.82;97857.80;109825;1278;1019613;-75
2022/08/16 02:41:27;;;;;;;13.90;9.10;;;;;;;17.45;82.96;97853.41;109694;1277;1016608;-74
2022/08/16 02:48:10;;;;;;;12.50;9.10;;;;;;;17.41;83.31;97850.33;109609;1281;1016548;-75
2022/08/16 03:00:42;;;;;;;;;;;;;;;;;;;;;
2022/08/16 03:13:30;;;;;;;12.50;9.00;;;;;;;17.00;83.61;97865.23;109636;1278;1017031;-76
2022/08/16 03:26:26;;;;;;;;;;;;;;;;;;;;;
2022/08/16 03:32:18;;;;;;;14.00;9.30;;;;;;;16.93;84.52;97872.52;109697;1278;1016940;-75
2022/08/16 03:38:44;;;;;;;11.30;8.50;;;;;;;16.95;84.65;97879.11;109588;1278;1017440;-75
2022/08/16 03:43:59;;;;;;;13.80;9.30;;;;;;;16.93;84.88;97888.27;109422;1278;1018646;-75
2022/08/16 03:49:40;;;;;;;14.50;9.40;;;;;;;16.92;84.90;97884.70;109774;1278;1018604;-75
2022/08/16 03:55:36;;;;;;;12.10;9.10;;;;;;;16.91;84.95;97886.22;109729;1277;1016613;-75
2022/08/16 04:07:42;;;;;;;12.80;10.20;;;;;;;16.92;85.33;97891.35;109701;1277;1018977;-75
2022/08/16 04:13:27;;;;;;;13.20;9.60;;;;;;;17.01;85.53;97888.28;109762;1277;1016343;-75
2022/08/16 04:19:35;;;;;;;;;;;;;;;;;;;;;
2022/08/16 04:25:29;;;;;;;15.70;10.30;;;;;;;17.23;85.77;97892.95;109803;1277;1017242;-75
2022/08/16 04:31:03;;;;;;;;;;;;;;;;;;;;;
2022/08/16 04:37:11;;;;;;;12.10;8.30;;;;;;;17.55;85.83;97890.13;109787;1277;1017306;-75
2022/08/16 04:42:37;;;;;;;15.20;9.80;;;;;;;17.68;85.81;97895.95;109612;1279;1018043;-76
2022/08/16 04:48:27;;;;;;;10.30;7.80;;;;;;;17.86;85.81;97900.48;109733;1276;1016971;-76
2022/08/16 04:54:09;;;;;;;11.10;8.60;;;;;;;17.98;85.21;97900.19;109733;1277;1015992;-75
2022/08/16 05:06:12;;;;;;;13.90;8.70;;;;;;;18.23;85.32;97909.70;109771;1277;1016306;-75
2022/08/16 05:11:48;;;;;;;;;;;;;;;;;;;;;
2022/08/16 05:17:55;;;;;;;16.70;9.30;;;;;;;18.63;85.21;97921.92;109731;1276;1017755;-74
2022/08/16 05:23:17;;;;;;;13.10;9.40;;;;;;;18.72;85.04;97932.46;109847;1277;1016504;-74
2022/08/16 05:29:55;;;;;;;15.60;8.80;;;;;;;18.85;84.96;97940.65;109367;1279;1016391;-75
2022/08/16 05:36:12;;;;;;;12.50;8.60;;;;;;;19.04;84.80;97943.90;109448;1279;1016624;-74
2022/08/16 05:48:20;;;;;;;12.00;8.70;;;;;;;19.52;84.56;97969.02;109366;1281;1018265;-74
2022/08/16 05:53:39;;;;;;;12.40;8.60;;;;;;;19.73;84.16;97971.16;109627;1281;1016386;-75
2022/08/16 05:59:08;;;;;;;17.40;11.80;;;;;;;19.88;83.98;97972.92;109721;1280;1016701;-75
2022/08/16 06:04:18;;;;;;;13.70;9.50;;;;;;;20.05;83.81;97980.50;109769;1277;1016351;-75
2022/08/16 06:10:14;;;;;;;11.80;9.00;;;;;;;20.27;83.74;97978.56;110157;1276;1018418;-76
2022/08/16 06:15:40;;;;;;;12.50;9.70;;;;;;;20.53;83.27;97981.39;109940;1276;1018040;-79
2022/08/16 06:21:01;;;;;;;15.30;10.20;;;;;;;20.73;82.88;97979.96;110012;1278;1018638;-74
2022/08/16 06:26:07;;;;;;;13.40;9.40;;;;;;;20.96;82.37;97977.91;109855;1277;1016602;-74
2022/08/16 06:31:36;;;;;;;14.00;9.80;;;;;;;21.13;81.86;97977.65;110005;1277;1016442;-76
2022/08/16 06:36:55;;;;;;;10.90;8.90;;;;;;;21.38;81.66;97985.83;109861;1276;1019012;-75
2022/08/16 06:42:02;;;;;;;16.40;9.80;;;;;;;21.60;81.13;97991.12;109931;1276;1016719;-75
2022/08/16 06:48:07;;;;;;;12.30;10.20;;;;;;;21.85;80.63;98002.77;109751;1277;1019195;-75
2022/08/16 06:53:32;;;;;;;12.80;9.60;;;;;;;22.05;79.80;98007.38;110528;1276;1017265;-74
2022/08/16 06:58:36;;;;;;;12.90;9.50;;;;;;;22.25;79.02;98010.73;110045;1277;1016574;-75
2022/08/16 07:03:59;;;;;;;10.50;9.10;;;;;;;22.41;78.39;98014.54;109902;1277;1016593;-75
2022/08/16 07:09:53;;;;;;;12.30;9.40;;;;;;;22.62;77.87;98020.11;109659;1278;1017618;-76
2022/08/16 07:15:18;;;;;;;11.70;8.90;;;;;;;22.86;77.83;98021.08;109887;1277;1016636;-77
2022/08/16 07:20:48;;;;;;;12.20;9.50;;;;;;;23.08;76.62;98019.69;109967;1277;1017734;-74
2022/08/16 07:26:25;;;;;;;11.10;9.00;;;;;;;23.24;75.77;98008.15;110079;1277;1016526;-75
2022/08/16 07:31:33;;;;;;;11.20;8.90;;;;;;;23.39;75.25;98005.48;109904;1276;1018948;-76
2022/08/16 07:36:46;;;;;;;10.50;8.30;;;;;;;23.58;74.69;98008.50;109977;1276;1016403;-76
2022/08/16 07:42:11;;;;;;;11.70;8.80;;;;;;;23.78;74.09;98005.71;109686;1277;1016702;-76
2022/08/16 07:47:50;;;;;;;8.40;7.50;;;;;;;24.05;73.57;98005.31;110049;1276;1016551;-75
2022/08/16 07:53:24;;;;;;;8.20;7.20;;;;;;;24.33;72.65;98010.51;110033;1275;1015873;-75
2022/08/16 07:58:36;;;;;;;9.40;7.90;;;;;;;24.54;72.06;98012.20;109702;1276;1016665;-76
2022/08/16 08:03:46;;;;;;;8.50;7.40;;;;;;;24.75;70.69;98018.49;109902;1276;1016608;-75
2022/08/16 08:08:56;;;;;;;7.80;7.00;;;;;;;24.92;70.28;98017.43;109811;1277;1016542;-75
2022/08/16 08:14:12;;;;;;;8.40;7.50;;;;;;;25.13;69.85;98018.21;109704;1276;1019211;-75
2022/08/16 08:19:52;;;;;;;8.70;7.80;;;;;;;25.32;68.70;98014.83;109797;1276;1016161;-75
2022/08/16 08:24:59;;;;;;;7.30;6.50;;;;;;;25.48;68.07;98016.11;109861;1276;1016515;-75
2022/08/16 08:30:11;;;;;;;8.50;7.20;;;;;;;25.60;67.64;98015.29;110006;1276;1016790;-76
2022/08/16 08:35:41;;;;;;;8.00;7.20;;;;;;;25.80;66.95;98011.16;109774;1277;1016777;-75
2022/08/16 08:40:49;;;;;;;8.50;7.60;;;;;;;25.94;66.38;98009.02;109749;1279;1016384;-75
2022/08/16 08:46:10;;;;;;;9.10;8.10;;;;;;;26.14;66.37;98017.91;110025;1277;1017458;-75
2022/08/16 08:51:39;;;;;;;8.50;7.60;;;;;;;26.31;65.35;98016.75;109832;1280;1016635;-75
2022/08/16 08:56:50;;;;;;;7.70;7.00;;;;;;;26.50;65.22;98014.92;109681;1280;1019530;-75
2022/08/16 09:02:20;;;;;;;10.50;7.50;;;;;;;26.63;64.27;98011.13;109683;1280;1016259;-75
2022/08/16 09:07:46;;;;;;;8.20;7.40;;;;;;;26.81;63.19;98016.13;109414;1283;1016237;-75
2022/08/16 09:13:20;;;;;;;10.00;6.90;;;;;;;26.96;62.42;98018.04;109171;1281;1016290;-76
2022/08/16 09:18:26;;;;;;;9.10;8.20;;;;;;;27.15;62.46;98025.17;109553;1281;1016615;-76
2022/08/16 09:23:40;;;;;;;8.60;7.70;;;;;;;27.29;61.84;98023.76;109227;1281;1016747;-75
2022/08/16 09:28:44;;;;;;;8.50;7.70;;;;;;;27.41;61.71;98023.92;109718;1279;1017365;-75
2022/08/16 09:34:18;;;;;;;8.20;7.40;;;;;;;27.57;61.37;98018.98;109947;1277;1016693;-75
2022/08/16 09:39:27;;;;;;;8.20;7.30;;;;;;;27.71;60.69;98021.00;109560;1274;1016867;-76
2022/08/16 09:45:03;;;;;;;9.30;6.90;;;;;;;27.86;59.60;98024.97;109721;1276;1017043;-75
2022/08/16 09:50:38;;;;;;;8.50;6.90;;;;;;;27.96;59.04;98029.34;109916;1276;1016339;-74
2022/08/16 09:56:05;;;;;;;7.90;7.00;;;;;;;28.06;58.76;98030.73;109615;1278;1016683;-75
2022/08/16 10:01:12;;;;;;;8.40;7.50;;;;;;;28.16;58.27;98029.42;109797;1276;1018600;-75
2022/08/16 10:06:19;;;;;;;9.00;7.50;;;;;;;28.23;58.02;98031.64;109840;1276;1017347;-75
2022/08/16 10:16:54;;;;;;;10.80;7.40;;;;;;;28.45;56.30;98028.04;109782;1277;1018325;-75
2022/08/16 10:22:23;;;;;;;7.10;6.00;;;;;;;28.53;55.03;98030.74;176723;1276;1016448;-76
2022/08/16 10:27:33;;;;;;;6.80;6.20;;;;;;;28.63;54.80;98034.96;219986;1276;24268;-77
2022/08/16 10:32:54;;;;;;;7.20;6.50;;;;;;;28.63;54.38;98027.79;220348;1276;22562;-76
2022/08/16 10:38:17;;;;;;;9.70;7.80;;;;;;;28.73;54.17;98027.27;220293;1276;22643;-78
2022/08/16 10:43:47;;;;;;;6.90;6.20;;;;;;;28.82;53.89;98030.73;221422;1276;22874;-77
2022/08/16 10:48:52;;;;;;;10.30;7.70;;;;;;;28.90;53.55;98030.48;220698;1276;24947;-75
2022/08/16 10:54:02;;;;;;;11.90;8.20;;;;;;;28.99;53.96;98029.96;220220;1276;24383;-75
2022/08/16 10:59:07;;;;;;;8.10;7.30;;;;;;;29.05;53.61;98028.87;221094;1277;22555;-75
2022/08/16 11:04:29;;;;;;;9.30;6.80;;;;;;;29.07;53.01;98023.61;221326;1276;25394;-77
2022/08/16 11:10:23;;;;;;;;;;;;;;;29.20;52.10;98023.23;222645;1276;23322;-76
2022/08/16 11:15:48;;;;;;;5.90;5.30;;;;;;;29.33;51.33;98023.57;220537;1276;22550;-75
2022/08/16 11:20:58;;;;;;;7.30;6.30;;;;;;;29.44;50.83;98030.04;222061;1276;24179;-75
2022/08/16 11:26:10;;;;;;;7.50;6.40;;;;;;;29.59;50.52;98028.86;222395;1276;22545;-77
2022/08/16 11:31:26;;;;;;;8.60;7.00;;;;;;;29.73;50.83;98021.39;222528;1276;22608;-76
2022/08/16 11:36:36;;;;;;;7.50;6.40;;;;;;;29.86;50.16;98019.17;220807;1276;1003085;-77
2022/08/16 11:41:42;;;;;;;8.30;7.00;;;;;;;29.89;49.51;98018.71;207466;1275;1003943;-76
2022/08/16 11:46:50;;;;;;;7.90;7.00;;;;;;;29.97;49.53;98010.76;219415;1276;1003032;-77
2022/08/16 11:51:55;;;;;;;9.10;8.10;;;;;;;30.14;49.77;98010.96;218585;1276;1003086;-76
2022/08/16 11:56:59;;;;;;;8.00;7.20;;;;;;;30.16;49.56;98012.87;114484;1276;1016828;-77
2022/08/16 12:02:04;;;;;;;11.70;7.80;;;;;;;30.01;49.12;98015.69;110586;1276;1016790;-77
2022/08/16 12:07:27;;;;;;;8.70;7.50;;;;;;;30.10;49.09;98014.39;179670;1276;1016428;-76
2022/08/16 12:12:29;;;;;;;9.70;7.50;;;;;;;30.08;48.73;98023.67;221783;1276;22622;-76
2022/08/16 12:17:36;;;;;;;9.30;8.00;;;;;;;30.24;48.88;98016.29;221046;1276;24152;-74
2022/08/16 12:22:39;;;;;;;10.00;7.80;;;;;;;30.41;48.27;98004.09;199826;1279;2002003;-75
2022/08/16 12:27:43;;;;;;;8.70;7.30;;;;;;;30.50;48.31;98003.20;215072;1277;1018563;-78
2022/08/16 12:33:03;;;;;;;8.30;7.40;;;;;;;30.41;48.25;98003.79;155742;1277;2001957;-77
2022/08/16 12:38:21;;;;;;;8.60;7.70;;;;;;;30.39;48.75;98008.19;190927;1275;1015654;-76
2022/08/16 12:43:43;;;;;;;7.90;7.10;;;;;;;30.60;48.95;98004.42;175041;1276;1016860;-76
2022/08/16 12:48:58;;;;;;;9.80;7.50;;;;;;;30.66;48.47;98002.55;116943;1279;1005541;-77
2022/08/16 12:54:03;;;;;;;9.20;7.50;;;;;;;30.61;48.32;97997.19;144454;1277;1016035;-75
2022/08/16 12:59:10;;;;;;;7.30;6.60;;;;;;;30.77;48.22;97984.38;158119;1279;1016466;-76
2022/08/16 13:04:21;;;;;;;7.00;6.30;;;;;;;30.96;48.02;97978.46;110717;1278;1016583;-75
2022/08/16 13:09:28;;;;;;;6.90;6.20;;;;;;;31.12;47.32;97972.21;111685;1276;1017034;-76
2022/08/16 13:14:38;;;;;;;7.10;6.30;;;;;;;31.29;46.74;97964.48;115971;1277;1016397;-75
2022/08/16 13:19:42;;;;;;;6.00;5.20;;;;;;;31.36;44.36;97971.62;111285;1276;1016471;-75
2022/08/16 13:25:06;;;;;;;9.20;5.90;;;;;;;31.39;43.68;97965.56;110962;1276;1018839;-76
2022/08/16 13:30:36;;;;;;;7.20;6.10;;;;;;;31.45;43.21;97963.64;146518;1276;1016625;-80
2022/08/16 13:35:47;;;;;;;8.70;6.40;;;;;;;31.60;43.49;97972.58;162374;1276;1016380;-75
2022/08/16 13:41:18;;;;;;;6.90;6.20;;;;;;;31.81;43.20;97981.04;112057;1279;1016510;-76
2022/08/16 13:46:32;;;;;;;6.80;6.20;;;;;;;31.98;42.89;97985.16;111269;1276;1017018;-77
2022/08/16 13:51:34;;;;;;;7.80;7.00;;;;;;;32.16;42.82;97993.91;111666;1276;1016412;-79
2022/08/16 13:56:41;;;;;;;6.90;6.20;;;;;;;32.39;42.83;97988.63;109934;1276;1016547;-77
2022/08/16 14:01:52;;;;;;;7.40;6.30;;;;;;;32.45;42.48;97987.77;111822;1276;1016822;-77
2022/08/16 14:07:01;;;;;;;6.80;6.20;;;;;;;32.24;42.45;97984.38;111236;1276;1017048;-76
2022/08/16 14:12:12;;;;;;;7.60;6.30;;;;;;;31.92;42.50;97986.55;110712;1279;1016265;-75
2022/08/16 14:17:20;;;;;;;7.80;7.00;;;;;;;31.58;42.89;97979.61;110945;1279;1016371;-76
2022/08/16 14:22:30;;;;;;;11.30;6.50;;;;;;;31.26;43.29;97974.58;111237;1276;1016686;-77
2022/08/16 14:27:42;;;;;;;6.90;6.20;;;;;;;31.05;43.21;97986.57;110334;1279;1016376;-77
2022/08/16 14:32:46;;;;;;;8.20;6.20;;;;;;;30.72;43.73;97995.83;111012;1276;1016063;-77
2022/08/16 14:37:52;;;;;;;7.30;6.40;;;;;;;30.41;44.31;97986.66;110810;1276;1018511;-76
2022/08/16 14:42:58;;;;;;;9.20;6.40;;;;;;;30.29;44.93;97990.27;111034;1276;1016262;-75
2022/08/16 14:48:08;;;;;;;7.10;6.40;;;;;;;30.21;45.25;97993.09;112008;1279;1016658;-77
2022/08/16 14:53:16;;;;;;;7.30;6.10;;;;;;;30.20;45.23;97994.78;111953;1276;1016111;-77
2022/08/16 14:58:19;;;;;;;7.00;6.40;;;;;;;30.01;44.85;97987.38;111526;1276;1016154;-78
2022/08/16 15:03:42;;;;;;;6.70;6.10;;;;;;;29.73;44.85;97984.95;111634;1276;1016371;-78
2022/08/16 15:08:48;;;;;;;7.20;6.10;;;;;;;29.51;45.04;97990.93;111629;1276;1019376;-75
2022/08/16 15:14:02;;;;;;;8.40;7.60;;;;;;;29.26;45.25;97989.68;111537;1276;1016723;-77
2022/08/16 15:19:27;;;;;;;8.30;7.50;;;;;;;29.00;45.14;97993.30;110638;1276;1016317;-76
2022/08/16 15:24:32;;;;;;;7.40;6.70;;;;;;;28.83;45.69;97999.00;111397;1279;1016200;-75
2022/08/16 15:29:48;;;;;;;7.70;6.90;;;;;;;28.73;45.91;98008.77;111754;1276;1016670;-77
2022/08/16 15:34:56;;;;;;;7.50;6.80;;;;;;;28.70;46.43;98012.38;111616;1277;1016979;-76
2022/08/16 15:40:15;;;;;;;6.80;6.20;;;;;;;28.77;46.50;98007.95;110275;1276;1016635;-76
2022/08/16 15:51:04;;;;;;;6.50;5.70;;;;;;;28.94;46.67;98030.71;110004;1276;1016679;-76
2022/08/16 15:56:11;;;;;;;7.10;6.30;;;;;;;29.03;47.04;98040.26;109776;1279;1016438;-74
2022/08/16 16:01:31;;;;;;;9.20;6.30;;;;;;;29.08;47.28;98049.52;109705;1276;1018653;-75
2022/08/16 16:06:34;;;;;;;7.00;6.00;;;;;;;29.14;47.20;98053.30;110019;1276;1016192;-75
2022/08/16 16:11:41;;;;;;;11.30;10.10;;;;;;;29.24;46.93;98052.21;109730;1277;1016697;-75
2022/08/16 16:16:49;;;;;;;8.80;6.40;;;;;;;29.26;46.51;98055.25;109984;1276;1016692;-77
2022/08/16 16:22:11;;;;;;;7.10;6.40;;;;;;;29.29;46.62;98054.48;110045;1277;1016864;-75
2022/08/16 16:27:29;;;;;;;7.30;6.60;;;;;;;29.29;46.67;98043.75;109738;1277;1016101;-76
2022/08/16 16:33:06;;;;;;;7.80;6.00;;;;;;;29.29;46.64;98041.08;109753;1279;1016820;-75
2022/08/16 16:38:08;;;;;;;7.90;6.30;;;;;;;29.28;46.47;98034.40;151694;1277;1019270;-74
2022/08/16 16:43:11;;;;;;;6.40;5.60;;;;;;;29.30;46.26;98033.11;175831;1276;1016632;-76
2022/08/16 16:48:25;;;;;;;6.70;6.00;;;;;;;29.24;46.42;98035.45;219512;1279;22531;-76
2022/08/16 16:53:45;;;;;;;6.60;5.50;;;;;;;29.14;46.48;98037.47;219251;1279;23068;-77
2022/08/16 16:59:00;;;;;;;6.00;5.20;;;;;;;29.02;46.40;98038.23;219759;1277;23227;-75
2022/08/16 17:04:20;;;;;;;5.60;5.10;;;;;;;28.89;46.62;98048.55;205329;1276;1016098;-75
2022/08/16 17:09:28;;;;;;;5.90;5.40;;;;;;;28.72;46.67;98050.51;219883;1276;25361;-76
2022/08/16 17:14:42;;;;;;;9.60;5.40;;;;;;;28.52;47.06;98057.84;220046;1276;24236;-76
2022/08/16 17:19:50;;;;;;;6.80;5.40;;;;;;;28.33;47.58;98064.55;219984;1276;24218;-75
2022/08/16 17:25:25;;;;;;;6.70;5.30;;;;;;;28.09;47.91;98063.45;219747;1276;23848;-76
2022/08/16 17:30:44;;;;;;;6.90;5.60;;;;;;;27.85;48.54;98071.60;219885;1276;25471;-75
2022/08/16 17:35:49;;;;;;;7.20;5.70;;;;;;;27.59;49.70;98068.30;200040;1276;1004986;-77
2022/08/16 17:41:00;;;;;;;11.40;6.10;;;;;;;27.29;50.68;98066.99;219778;1276;22561;-76
2022/08/16 17:46:13;;;;;;;8.70;6.70;;;;;;;27.00;51.98;98068.85;219938;1276;22577;-75
2022/08/16 17:52:02;;;;;;;7.50;6.80;;;;;;;26.71;53.02;98071.69;219679;1276;23851;-76
2022/08/16 17:57:13;;;;;;;8.50;7.10;;;;;;;26.44;54.01;98072.59;219410;1278;22713;-77
2022/08/16 18:02:24;;;;;;;9.90;7.50;;;;;;;26.16;54.89;98073.80;219757;1276;22578;-76
2022/08/16 18:07:54;;;;;;;8.90;8.00;;;;;;;25.89;55.73;98074.70;219773;1276;25301;-76
2022/08/16 18:13:24;;;;;;;10.10;9.10;;;;;;;25.62;56.57;98078.95;219810;1277;22543;-77
2022/08/16 18:19:04;;;;;;;14.00;8.60;;;;;;;25.34;57.01;98076.53;215527;1277;1003757;-75
2022/08/16 18:24:13;;;;;;;11.20;9.10;;;;;;;25.10;57.67;98072.56;120182;1277;1005914;-75
2022/08/16 18:29:46;;;;;;;9.70;8.70;;;;;;;24.88;58.30;98073.18;205184;1277;1015995;-75
2022/08/16 18:35:21;;;;;;;11.20;8.90;;;;;;;24.67;59.04;98076.73;209702;1276;1016028;-74
2022/08/16 18:40:44;;;;;;;10.50;8.40;;;;;;;24.49;59.63;98080.96;219926;1276;22551;-74
2022/08/16 18:46:14;;;;;;;12.30;8.90;;;;;;;24.30;60.24;98085.34;220063;1276;22557;-76
2022/08/16 18:51:19;;;;;;;9.80;8.70;;;;;;;24.12;60.68;98087.14;122342;1277;1017263;-75
2022/08/16 18:56:46;;;;;;;14.10;9.40;;;;;;;23.94;60.98;98081.32;109886;1277;1016207;-75
2022/08/16 19:02:02;;;;;;;11.10;8.80;;;;;;;23.81;61.39;98083.20;217941;1276;1003156;-75
2022/08/16 19:07:46;;;;;;;11.80;9.20;;;;;;;23.67;61.99;98085.64;219318;1280;23808;-76
2022/08/16 19:12:49;;;;;;;10.50;8.20;;;;;;;23.55;62.71;98085.20;117103;1280;1017941;-75
2022/08/16 19:18:22;;;;;;;;;;;;;;;;;;;;;
2022/08/16 19:23:47;;;;;;;11.50;8.90;;;;;;;23.28;63.51;98090.44;172509;1280;1016792;-75
2022/08/16 19:36:25;;;;;;;9.50;8.50;;;;;;;23.05;64.60;98109.50;109651;1277;1016456;-75
2022/08/16 19:41:53;;;;;;;10.20;8.60;;;;;;;22.95;65.00;98110.11;109808;1277;1016620;-74
2022/08/16 19:46:58;;;;;;;11.00;7.60;;;;;;;22.86;65.42;98115.00;109698;1277;1017607;-79
2022/08/16 19:52:22;;;;;;;9.80;7.40;;;;;;;22.78;65.85;98113.67;109870;1278;1016512;-74
2022/08/16 19:57:46;;;;;;;14.80;12.20;;;;;;;22.69;66.15;98113.48;109738;1277;1016733;-75
2022/08/16 20:03:00;;;;;;;19.40;15.20;;;;;;;22.59;66.58;98117.58;109738;1278;1016421;-75
2022/08/16 20:08:04;;;;;;;14.10;11.50;;;;;;;22.50;66.88;98123.17;109815;1278;1016522;-76
2022/08/16 20:13:13;;;;;;;14.20;11.90;;;;;;;22.41;67.12;98125.79;109783;1278;1017714;-75
2022/08/16 20:18:18;;;;;;;13.80;10.80;;;;;;;22.31;67.41;98121.19;109763;1278;1016446;-74
2022/08/16 20:23:26;;;;;;;15.60;10.90;;;;;;;22.20;67.81;98126.20;109743;1278;1016466;-75
2022/08/16 20:28:42;;;;;;;13.10;10.80;;;;;;;22.11;68.30;98132.86;109724;1277;1017048;-77
2022/08/16 20:34:15;;;;;;;11.80;9.70;;;;;;;22.02;68.67;98138.57;109542;1281;1016709;-76
2022/08/16 20:39:18;;;;;;;11.50;10.30;;;;;;;21.94;69.04;98151.22;109672;1278;1016260;-75
2022/08/16 20:44:20;;;;;;;16.90;12.40;;;;;;;21.87;69.30;98155.98;109774;1278;1016637;-76
2022/08/16 20:49:27;;;;;;;14.90;12.20;;;;;;;21.79;69.55;98156.41;109852;1277;1017278;-76
2022/08/16 20:54:29;;;;;;;15.60;12.00;;;;;;;21.73;69.60;98161.13;109586;1277;1016329;-75
2022/08/16 20:59:42;;;;;;;14.90;11.50;;;;;;;21.67;69.85;98160.98;109631;1277;1016507;-75
2022/08/16 21:04:51;;;;;;;14.70;11.50;;;;;;;21.62;70.14;98162.90;109662;1278;1017954;-76
2022/08/16 21:09:53;;;;;;;12.00;9.80;;;;;;;21.57;70.52;98167.06;109597;1277;1018866;-75
2022/08/16 21:15:15;;;;;;;12.50;10.40;;;;;;;21.49;71.10;98173.05;109747;1278;1016477;-75
2022/08/16 21:20:26;;;;;;;15.70;10.80;;;;;;;21.42;71.28;98172.19;109704;1277;1018317;-75
2022/08/16 21:25:36;;;;;;;16.30;11.90;;;;;;;21.36;71.49;98170.35;109742;1278;1015997;-75
2022/08/16 21:30:56;;;;;;;15.80;11.30;;;;;;;21.29;71.68;98166.95;109701;1277;1017117;-75
2022/08/16 21:36:28;;;;;;;14.70;10.70;;;;;;;21.23;71.84;98172.56;109765;1278;1016600;-76
2022/08/16 21:41:39;;;;;;;17.50;12.80;;;;;;;21.15;72.23;98171.95;109675;1276;1016652;-75
2022/08/16 21:46:42;;;;;;;16.90;12.10;;;;;;;21.07;72.51;98173.10;109774;1277;1016658;-75
2022/08/16 21:51:56;;;;;;;15.00;11.40;;;;;;;20.99;72.67;98180.64;109641;1277;1018642;-75
2022/08/16 21:57:41;;;;;;;15.70;11.10;;;;;;;20.93;72.98;98182.61;109775;1277;1017231;-75
2022/08/16 22:02:54;;;;;;;15.90;11.40;;;;;;;20.88;73.27;98185.89;109801;1277;1016383;-74
2022/08/16 22:08:08;;;;;;;15.60;10.50;;;;;;;20.80;73.69;98185.56;109721;1277;1016312;-75
2022/08/16 22:13:29;;;;;;;15.90;10.30;;;;;;;20.69;73.88;98175.46;109788;1277;1016660;-75
2022/08/16 22:19:28;;;;;;;14.00;10.50;;;;;;;20.61;74.23;98177.84;109547;1276;1016864;-75
2022/08/16 22:24:49;;;;;;;13.90;10.90;;;;;;;20.56;74.64;98176.36;109669;1277;1017026;-75
2022/08/16 22:30:53;;;;;;;13.70;9.90;;;;;;;20.49;74.89;98185.14;109744;1277;1016090;-75
2022/08/16 22:36:25;;;;;;;13.80;10.50;;;;;;;20.42;75.18;98183.02;109693;1277;1016740;-75
2022/08/16 22:41:50;;;;;;;14.30;11.20;;;;;;;20.35;75.67;98176.10;109790;1277;1016703;-75
2022/08/16 22:52:59;;;;;;;13.20;10.40;;;;;;;20.24;75.82;98168.89;109752;1277;1016539;-75
2022/08/16 22:58:46;;;;;;;15.70;11.10;;;;;;;20.15;76.05;98164.26;109470;1280;1016294;-75
2022/08/16 23:03:54;;;;;;;16.10;10.80;;;;;;;20.10;76.34;98155.25;109412;1280;1016670;-75
2022/08/16 23:09:18;;;;;;;15.60;11.00;;;;;;;20.06;76.65;98147.90;109310;1280;1019085;-75
2022/08/16 23:14:31;;;;;;;13.60;11.10;;;;;;;20.02;76.83;98148.99;109506;1281;1017149;-75
2022/08/16 23:20:53;;;;;;;18.70;11.20;;;;;;;19.97;77.02;98151.11;109316;1278;1016537;-75
2022/08/16 23:26:50;;;;;;;16.30;10.80;;;;;;;19.93;77.28;98149.95;109819;1277;1017133;-74
2022/08/16 23:32:23;;;;;;;14.40;9.80;;;;;;;19.88;77.75;98139.63;109603;1276;1016596;-75
2022/08/16 23:37:47;;;;;;;;;;;;;;;;;;;;;
2022/08/16 23:49:26;;;;;;;13.70;10.30;;;;;;;19.65;78.36;98134.60;109649;1277;1016948;-75
2022/08/16 23:54:55;;;;;;;13.40;10.80;;;;;;;19.62;78.69;98134.48;109718;1277;1018204;-75
2022/08/16 23:59:59;;;;;;;15.60;10.70;;;;;;;19.60;78.76;98133.13;109649;1277;1016498;-75
